Time;durP1;ratioP1;P1;durP2;ratioP2;P2;SDS_P1;SDS_P2;PMS_P1;PMS_P2;Temp;Humidity;BMP_temperature;BMP_pressure;BME280_temperature;BME280_humidity;BME280_pressure;Samples;Min_cycle;Max_cycle;Signal;HPM_P1;HPM_P2
2022/01/07 00:01:04;;;;;;;0.60;0.60;;;;;;;-141.59;100.00;61776.25;5021831;28;20237;-83
2022/01/07 00:03:32;;;;;;;0.80;0.70;;;;;;;-141.59;100.00;61776.25;5063532;28;20224;-84
2022/01/07 00:05:59;;;;;;;0.70;0.70;;;;;;;-141.59;100.00;61776.25;5031341;28;20203;-84
2022/01/07 00:08:26;;;;;;;1.70;0.60;;;;;;;-141.59;100.00;61776.25;5028991;28;20198;-84
2022/01/07 00:10:54;;;;;;;0.60;0.60;;;;;;;-141.59;100.00;61776.25;5024255;28;20263;-84
2022/01/07 00:13:21;;;;;;;0.60;0.60;;;;;;;-141.59;100.00;61776.25;5044164;28;20199;-83
2022/01/07 00:15:50;;;;;;;1.33;0.80;;;;;;;-141.59;100.00;61776.25;5024772;28;20283;-83
2022/01/07 00:18:17;;;;;;;0.70;0.70;;;;;;;-141.59;100.00;61776.25;5030672;28;20299;-83
2022/01/07 00:20:44;;;;;;;1.87;1.00;;;;;;;-141.59;100.00;61776.25;5041090;28;20217;-83
2022/01/07 00:23:11;;;;;;;0.70;0.70;;;;;;;-141.59;100.00;61776.25;5029959;28;20237;-83
2022/01/07 00:25:39;;;;;;;0.83;0.60;;;;;;;-141.59;100.00;61776.25;5029210;28;20210;-84
2022/01/07 00:28:06;;;;;;;0.70;0.70;;;;;;;-141.59;100.00;61776.25;5038685;28;20285;-84
2022/01/07 00:30:35;;;;;;;0.60;0.60;;;;;;;-141.59;100.00;61776.25;5029698;28;20212;-83
2022/01/07 00:33:03;;;;;;;1.00;0.90;;;;;;;-141.59;100.00;61776.25;5030273;28;20368;-84
2022/01/07 00:35:30;;;;;;;0.60;0.60;;;;;;;-141.59;100.00;61776.25;5053705;28;20202;-84
2022/01/07 00:37:58;;;;;;;0.67;0.67;;;;;;;-141.59;100.00;61776.25;5061702;28;20242;-84
2022/01/07 00:40:27;;;;;;;0.63;0.63;;;;;;;-141.59;100.00;61776.25;5068809;28;20333;-83
2022/01/07 00:42:54;;;;;;;0.60;0.60;;;;;;;-141.59;100.00;61776.25;5026529;28;20229;-83
2022/01/07 00:45:23;;;;;;;0.40;0.40;;;;;;;-141.59;100.00;61776.25;5030965;28;20201;-84
2022/01/07 00:47:51;;;;;;;1.07;0.60;;;;;;;-141.59;100.00;61776.25;5035427;28;20214;-84
2022/01/07 00:50:21;;;;;;;0.60;0.60;;;;;;;-141.59;100.00;61776.25;5058353;28;20202;-83
2022/01/07 00:52:49;;;;;;;0.67;0.60;;;;;;;-141.59;100.00;61776.25;5022143;28;20203;-84
2022/01/07 00:55:17;;;;;;;0.97;0.87;;;;;;;-141.59;100.00;61776.25;5030818;28;20233;-84
2022/01/07 00:57:44;;;;;;;1.43;0.80;;;;;;;-141.59;100.00;61776.25;5036903;28;20210;-84
2022/01/07 01:00:15;;;;;;;0.67;0.67;;;;;;;-141.59;100.00;61776.25;5027131;28;20203;-84
2022/01/07 01:02:43;;;;;;;0.50;0.50;;;;;;;-141.59;100.00;61776.25;5045261;28;20222;-83
2022/01/07 01:05:12;;;;;;;0.60;0.60;;;;;;;-141.59;100.00;61776.25;5040923;28;20201;-84
2022/01/07 01:07:42;;;;;;;0.70;0.70;;;;;;;-141.59;100.00;61776.25;5068413;28;20205;-83
2022/01/07 01:10:10;;;;;;;0.57;0.57;;;;;;;-141.59;100.00;61776.25;5050577;28;20210;-83
2022/01/07 01:12:40;;;;;;;0.60;0.60;;;;;;;-141.59;100.00;61776.25;5031313;28;20438;-83
2022/01/07 01:15:10;;;;;;;0.50;0.50;;;;;;;-141.59;100.00;61776.25;5032956;28;20218;-84
2022/01/07 01:17:38;;;;;;;0.60;0.60;;;;;;;-141.59;100.00;61776.25;5038502;28;20187;-83
2022/01/07 01:20:07;;;;;;;0.50;0.50;;;;;;;-141.59;100.00;61776.25;5025050;28;20208;-83
2022/01/07 01:22:35;;;;;;;0.43;0.43;;;;;;;-141.59;100.00;61776.25;5042001;28;20228;-83
2022/01/07 01:25:04;;;;;;;0.50;0.50;;;;;;;-141.59;100.00;61776.25;5064519;28;20283;-84
2022/01/07 01:27:31;;;;;;;0.80;0.80;;;;;;;-141.59;100.00;61776.25;5032756;28;20224;-84
2022/01/07 01:30:47;;;;;;;0.60;0.60;;;;;;;-1.20;88.18;96501.41;5092301;27;20589;-81
2022/01/07 01:33:14;;;;;;;0.60;0.60;;;;;;;-1.26;88.10;96488.75;5077202;28;20215;-81
2022/01/07 01:35:42;;;;;;;0.73;0.70;;;;;;;-1.25;88.64;96501.00;5073881;28;20214;-81
2022/01/07 01:38:09;;;;;;;0.60;0.60;;;;;;;-1.25;88.98;96504.50;5078392;28;20202;-81
2022/01/07 01:40:37;;;;;;;0.50;0.50;;;;;;;-1.29;89.63;96499.66;5083125;28;20270;-81
2022/01/07 01:43:04;;;;;;;0.40;0.40;;;;;;;-1.26;89.35;96520.53;5077145;28;20197;-81
2022/01/07 01:45:32;;;;;;;0.83;0.60;;;;;;;-1.27;88.85;96529.47;5078307;28;20294;-81
2022/01/07 01:48:00;;;;;;;0.40;0.40;;;;;;;-1.28;88.95;96527.81;5073285;28;20272;-80
2022/01/07 01:50:27;;;;;;;0.87;0.60;;;;;;;-1.27;87.86;96530.28;5071947;28;20252;-81
2022/01/07 01:52:57;;;;;;;0.50;0.50;;;;;;;-1.23;88.07;96525.53;5073223;28;20300;-80
2022/01/07 01:55:26;;;;;;;0.60;0.60;;;;;;;-1.24;87.80;96532.66;5080444;28;20277;-82
2022/01/07 01:57:54;;;;;;;0.90;0.60;;;;;;;-1.26;88.33;96541.72;5078827;28;20296;-82
2022/01/07 02:00:23;;;;;;;0.50;0.50;;;;;;;-1.31;89.67;96538.72;5079022;28;20236;-82
2022/01/07 02:02:50;;;;;;;0.70;0.60;;;;;;;-1.33;89.46;96536.22;5078606;28;20211;-83
2022/01/07 02:05:19;;;;;;;0.60;0.60;;;;;;;-1.35;89.16;96537.34;5078544;28;20233;-82
2022/01/07 02:07:46;;;;;;;0.50;0.50;;;;;;;-1.40;89.61;96531.69;5093943;28;20204;-83
2022/01/07 02:10:16;;;;;;;1.90;0.70;;;;;;;-1.39;90.65;96533.34;5078661;28;20253;-83
2022/01/07 02:12:43;;;;;;;0.40;0.40;;;;;;;-1.35;91.52;96540.00;5094108;28;20205;-82
2022/01/07 02:15:14;;;;;;;0.57;0.57;;;;;;;-1.32;92.55;96537.88;5077856;28;20270;-83
2022/01/07 02:17:42;;;;;;;0.50;0.50;;;;;;;-1.33;92.40;96532.72;5066699;28;20237;-82
2022/01/07 02:20:12;;;;;;;0.50;0.50;;;;;;;-1.34;92.73;96531.06;5078793;28;20228;-82
2022/01/07 02:22:40;;;;;;;0.60;0.60;;;;;;;-1.41;92.85;96532.66;5095619;28;20217;-83
2022/01/07 02:25:07;;;;;;;0.50;0.50;;;;;;;-1.47;93.75;96526.16;5078040;28;20236;-83
2022/01/07 02:27:39;;;;;;;0.60;0.60;;;;;;;-1.49;93.80;96529.94;5078769;28;20225;-83
2022/01/07 02:30:09;;;;;;;0.50;0.50;;;;;;;-1.53;93.87;96521.44;5079682;28;20300;-82
2022/01/07 02:32:36;;;;;;;0.60;0.60;;;;;;;-1.64;93.98;96525.19;5071212;28;20243;-83
2022/01/07 02:35:04;;;;;;;0.50;0.50;;;;;;;-1.62;94.41;96514.44;5078376;28;20209;-82
2022/01/07 02:37:33;;;;;;;0.90;0.60;;;;;;;-1.59;94.51;96509.66;5080621;28;20209;-82
2022/01/07 02:40:02;;;;;;;0.60;0.60;;;;;;;-1.51;93.89;96506.25;5073871;28;20209;-82
2022/01/07 02:42:29;;;;;;;0.60;0.60;;;;;;;-1.53;94.10;96503.75;5063909;28;20352;-83
2022/01/07 02:44:56;;;;;;;1.43;0.50;;;;;;;-1.49;93.52;96514.88;5066996;28;20290;-82
2022/01/07 02:47:26;;;;;;;0.60;0.60;;;;;;;-1.61;93.67;96508.97;5064870;28;20197;-83
2022/01/07 02:49:53;;;;;;;0.60;0.60;;;;;;;-1.75;94.07;96512.16;5059223;28;20231;-82
2022/01/07 02:52:20;;;;;;;0.60;0.60;;;;;;;-1.81;95.64;96515.41;5062627;28;20236;-82
2022/01/07 02:54:49;;;;;;;0.50;0.50;;;;;;;-1.74;95.67;96520.94;5062441;28;20197;-82
2022/01/07 02:57:16;;;;;;;0.63;0.63;;;;;;;-1.82;95.74;96516.38;5055463;28;20202;-82
2022/01/07 02:59:43;;;;;;;0.80;0.80;;;;;;;-1.87;95.74;96517.81;5065397;28;20204;-81
2022/01/07 03:02:10;;;;;;;1.00;0.80;;;;;;;-1.93;96.35;96527.19;5064209;28;20216;-82
2022/01/07 03:04:37;;;;;;;0.60;0.60;;;;;;;-2.09;96.89;96519.91;5065961;28;20482;-82
2022/01/07 03:07:05;;;;;;;0.40;0.40;;;;;;;-2.15;97.36;96530.25;5064994;28;20351;-82
2022/01/07 03:09:32;;;;;;;0.50;0.50;;;;;;;-2.19;98.15;96528.84;5064365;28;20252;-82
2022/01/07 03:12:00;;;;;;;0.70;0.63;;;;;;;-2.26;98.39;96533.06;5065058;28;20329;-82
2022/01/07 03:14:27;;;;;;;0.63;0.63;;;;;;;-2.28;99.54;96536.69;5066543;28;20209;-82
2022/01/07 03:16:54;;;;;;;1.27;1.10;;;;;;;-2.26;99.93;96536.56;5062399;28;20201;-81
2022/01/07 03:19:21;;;;;;;0.60;0.60;;;;;;;-2.26;99.79;96536.56;5065785;28;20216;-82
2022/01/07 03:21:49;;;;;;;0.80;0.70;;;;;;;-2.30;100.00;96530.72;5057442;28;20209;-82
2022/01/07 03:24:16;;;;;;;0.80;0.80;;;;;;;-2.31;100.00;96526.44;5061260;28;20235;-81
2022/01/07 03:26:43;;;;;;;0.93;0.93;;;;;;;-2.29;100.00;96527.09;5059674;28;20224;-82
2022/01/07 03:29:11;;;;;;;1.80;0.63;;;;;;;-2.34;99.23;96518.78;5070213;28;20243;-82
2022/01/07 03:31:38;;;;;;;0.70;0.70;;;;;;;-2.37;98.89;96508.47;5062652;28;20275;-81
2022/01/07 03:34:06;;;;;;;0.60;0.60;;;;;;;-2.39;99.53;96502.53;5064081;28;20208;-81
2022/01/07 03:36:33;;;;;;;0.57;0.57;;;;;;;-2.38;99.57;96506.81;5062011;28;20205;-81
2022/01/07 03:39:02;;;;;;;0.60;0.60;;;;;;;-2.37;99.82;96492.63;5059561;28;20210;-81
2022/01/07 03:41:30;;;;;;;1.40;0.90;;;;;;;-2.31;98.99;96497.34;5065408;28;20212;-81
2022/01/07 03:43:57;;;;;;;0.60;0.60;;;;;;;-2.37;98.27;96491.78;5057018;28;20201;-80
2022/01/07 03:46:26;;;;;;;0.50;0.50;;;;;;;-2.49;98.26;96477.94;5065532;28;20205;-81
2022/01/07 03:48:53;;;;;;;0.50;0.50;;;;;;;-2.46;99.18;96472.34;5061129;28;20221;-81
2022/01/07 03:51:20;;;;;;;0.67;0.67;;;;;;;-2.46;98.44;96477.63;5063394;28;20295;-81
2022/01/07 03:53:48;;;;;;;0.80;0.80;;;;;;;-2.35;98.02;96477.44;5081732;28;20250;-81
2022/01/07 03:56:17;;;;;;;0.50;0.50;;;;;;;-2.37;98.68;96465.34;5063492;28;20199;-82
2022/01/07 03:58:46;;;;;;;1.10;0.60;;;;;;;-2.32;98.00;96479.78;5063782;28;20225;-81
2022/01/07 04:01:13;;;;;;;0.60;0.60;;;;;;;-2.22;96.86;96478.91;5060097;28;20295;-81
2022/01/07 04:03:41;;;;;;;0.50;0.50;;;;;;;-2.21;97.22;96485.88;5059916;28;20204;-82
2022/01/07 04:06:08;;;;;;;1.70;1.23;;;;;;;-2.17;97.20;96476.66;5064051;28;20196;-81
2022/01/07 04:08:36;;;;;;;0.60;0.60;;;;;;;-2.10;96.83;96488.28;5053378;28;20198;-81
2022/01/07 04:11:03;;;;;;;0.60;0.60;;;;;;;-2.17;96.14;96487.22;5061189;28;20222;-81
2022/01/07 04:13:30;;;;;;;0.70;0.70;;;;;;;-2.20;97.66;96492.81;5066153;28;20216;-81
2022/01/07 04:15:57;;;;;;;0.50;0.50;;;;;;;-2.17;97.57;96497.81;5062259;28;20194;-81
2022/01/07 04:18:24;;;;;;;0.53;0.53;;;;;;;-2.11;97.27;96497.19;5061107;28;20228;-81
2022/01/07 04:20:52;;;;;;;0.70;0.70;;;;;;;-2.12;96.32;96496.38;5062145;28;20212;-81
2022/01/07 04:23:19;;;;;;;0.70;0.70;;;;;;;-2.09;96.17;96501.38;5060322;28;20262;-81
2022/01/07 04:25:47;;;;;;;1.27;0.70;;;;;;;-2.07;96.58;96509.16;5061655;28;20197;-81
2022/01/07 04:28:14;;;;;;;1.17;0.67;;;;;;;-2.05;95.91;96512.50;5061263;28;20228;-79
2022/01/07 04:30:44;;;;;;;0.70;0.70;;;;;;;-2.18;95.05;96506.72;5062439;28;20709;-81
2022/01/07 04:33:14;;;;;;;0.63;0.63;;;;;;;-2.22;96.21;96508.84;5057171;28;20201;-80
2022/01/07 04:35:43;;;;;;;2.67;1.30;;;;;;;-2.17;96.99;96524.25;5061916;28;20293;-81
2022/01/07 04:38:12;;;;;;;3.67;2.10;;;;;;;-2.19;97.16;96520.91;5058733;28;20204;-81
2022/01/07 04:40:39;;;;;;;1.27;0.90;;;;;;;-2.26;97.57;96507.47;5059733;28;20237;-82
2022/01/07 04:43:07;;;;;;;0.60;0.60;;;;;;;-2.35;98.60;96501.25;5061928;28;20231;-80
2022/01/07 04:45:35;;;;;;;1.63;1.10;;;;;;;-2.31;98.25;96510.56;5057309;28;20255;-80
2022/01/07 04:48:02;;;;;;;2.77;1.87;;;;;;;-2.31;98.57;96507.91;5051404;28;20214;-80
2022/01/07 04:50:30;;;;;;;0.50;0.50;;;;;;;-2.31;99.05;96509.72;5063255;28;20218;-79
2022/01/07 04:52:58;;;;;;;0.70;0.70;;;;;;;-2.43;98.44;96506.44;5059748;28;20297;-79
2022/01/07 04:55:29;;;;;;;3.47;1.77;;;;;;;-2.45;99.02;96524.25;5055539;28;20299;-80
2022/01/07 04:57:58;;;;;;;2.20;1.57;;;;;;;-2.44;99.63;96519.78;5060390;28;20221;-79
2022/01/07 05:00:25;;;;;;;5.30;2.20;;;;;;;-2.49;100.00;96525.53;5062936;28;20273;-80
2022/01/07 05:02:53;;;;;;;4.63;2.10;;;;;;;-2.48;100.00;96535.13;5060768;28;20211;-80
2022/01/07 05:05:20;;;;;;;3.13;1.73;;;;;;;-2.42;100.00;96547.75;5061887;28;20213;-80
2022/01/07 05:07:47;;;;;;;2.27;1.30;;;;;;;-2.39;100.00;96547.47;5062817;28;20304;-79
2022/01/07 05:10:16;;;;;;;2.57;1.30;;;;;;;-2.37;100.00;96552.59;5057178;28;20229;-79
2022/01/07 05:12:45;;;;;;;4.10;1.37;;;;;;;-2.39;100.00;96547.47;5064023;28;20238;-79
2022/01/07 05:15:14;;;;;;;1.83;1.23;;;;;;;-2.39;100.00;96560.69;5059217;28;20209;-79
2022/01/07 05:17:41;;;;;;;1.47;1.10;;;;;;;-2.37;100.00;96560.53;5058991;28;20210;-80
2022/01/07 05:20:10;;;;;;;1.27;0.93;;;;;;;-2.37;100.00;96566.66;5060632;28;20229;-79
2022/01/07 05:22:37;;;;;;;0.60;0.60;;;;;;;-2.43;100.00;96575.19;5064306;28;20224;-79
2022/01/07 05:25:05;;;;;;;3.10;1.13;;;;;;;-2.45;100.00;96584.22;5057304;28;20287;-79
2022/01/07 05:27:32;;;;;;;0.70;0.70;;;;;;;-2.48;100.00;96580.06;5059765;28;20360;-79
2022/01/07 05:30:00;;;;;;;1.43;0.80;;;;;;;-2.45;100.00;96585.06;5060619;28;20288;-79
2022/01/07 05:32:28;;;;;;;1.10;1.00;;;;;;;-2.48;100.00;96580.06;5059227;28;20594;-79
2022/01/07 05:34:55;;;;;;;1.20;1.00;;;;;;;-2.47;100.00;96581.75;5062355;28;20289;-80
2022/01/07 05:37:22;;;;;;;1.00;0.80;;;;;;;-2.48;100.00;96588.00;5058249;28;20297;-78
2022/01/07 05:39:49;;;;;;;2.10;1.10;;;;;;;-2.45;100.00;96584.22;5062744;28;20217;-79
2022/01/07 05:42:16;;;;;;;1.47;1.10;;;;;;;-2.52;100.00;96578.69;5062621;28;20225;-78
2022/01/07 05:44:43;;;;;;;2.23;1.37;;;;;;;-2.54;100.00;96577.16;5062638;28;20233;-79
2022/01/07 05:47:12;;;;;;;0.83;0.80;;;;;;;-2.62;100.00;96577.88;5065637;28;20211;-79
2022/01/07 05:49:39;;;;;;;2.60;1.10;;;;;;;-2.72;100.00;96574.41;5059418;28;20255;-79
2022/01/07 05:52:07;;;;;;;2.83;1.50;;;;;;;-2.67;100.00;96569.56;5060477;28;20200;-79
2022/01/07 05:54:34;;;;;;;4.03;2.50;;;;;;;-2.67;100.00;96578.31;5061501;28;20345;-79
2022/01/07 05:57:01;;;;;;;3.37;2.17;;;;;;;-2.83;100.00;96569.31;5053932;28;20277;-78
2022/01/07 05:59:28;;;;;;;5.72;2.95;;;;;;;-2.83;100.00;96578.06;5060057;28;20901;-79
2022/01/07 06:01:55;;;;;;;4.00;2.20;;;;;;;-2.83;100.00;96572.78;5061792;28;20197;-79
2022/01/07 06:04:24;;;;;;;5.03;2.13;;;;;;;-2.76;100.00;96586.25;5060988;28;20204;-78
2022/01/07 06:06:51;;;;;;;3.37;1.57;;;;;;;-2.68;100.00;96573.16;5060619;28;20205;-79
2022/01/07 06:09:18;;;;;;;1.63;1.43;;;;;;;-2.62;100.00;96572.59;5064309;28;20218;-78
2022/01/07 06:11:45;;;;;;;1.80;1.17;;;;;;;-2.60;100.00;96572.44;5059053;28;20307;-80
2022/01/07 06:14:12;;;;;;;2.27;1.33;;;;;;;-2.55;100.00;96562.28;5062795;28;20206;-79
2022/01/07 06:16:39;;;;;;;1.97;1.30;;;;;;;-2.56;100.00;96566.75;5073415;28;20276;-79
2022/01/07 06:19:07;;;;;;;1.67;1.30;;;;;;;-2.50;100.00;96555.59;5066106;28;20230;-79
2022/01/07 06:21:35;;;;;;;2.60;1.70;;;;;;;-2.47;100.00;96555.31;5068757;28;20201;-79
2022/01/07 06:24:02;;;;;;;2.27;1.43;;;;;;;-2.41;100.00;96564.47;5064954;28;20292;-80
2022/01/07 06:26:31;;;;;;;3.47;1.50;;;;;;;-2.41;100.00;96560.00;5062971;28;20213;-79
2022/01/07 06:28:58;;;;;;;3.63;1.40;;;;;;;-2.34;100.00;96563.72;5065857;28;20235;-79
2022/01/07 06:31:26;;;;;;;2.40;1.60;;;;;;;-2.33;100.00;96569.84;5061411;28;20277;-79
2022/01/07 06:33:53;;;;;;;1.60;1.50;;;;;;;-2.28;100.00;96560.50;5062207;28;20309;-79
2022/01/07 06:36:20;;;;;;;1.17;1.03;;;;;;;-2.17;100.00;96561.28;5064151;28;20205;-79
2022/01/07 06:38:48;;;;;;;1.77;1.10;;;;;;;-2.16;100.00;96562.97;5064887;28;20206;-79
2022/01/07 06:41:15;;;;;;;1.53;1.40;;;;;;;-2.13;100.00;96557.38;5064175;28;20208;-80
2022/01/07 06:43:44;;;;;;;1.60;1.40;;;;;;;-2.14;100.00;96566.31;5061310;28;20206;-79
2022/01/07 06:46:13;;;;;;;1.30;1.10;;;;;;;-2.06;99.93;96569.88;5063526;28;20206;-80
2022/01/07 06:48:41;;;;;;;2.07;1.20;;;;;;;-2.00;99.04;96571.94;5066290;28;20205;-82
2022/01/07 06:51:08;;;;;;;2.83;1.13;;;;;;;-2.02;98.73;96571.22;5076444;28;20277;-81
2022/01/07 06:53:35;;;;;;;2.33;1.00;;;;;;;-1.98;99.00;96582.38;5064406;28;20218;-82
2022/01/07 06:56:04;;;;;;;3.17;1.00;;;;;;;-1.99;97.95;96578.06;5066076;28;20288;-79
2022/01/07 06:58:32;;;;;;;1.60;0.93;;;;;;;-1.92;97.76;96579.13;5066161;28;20289;-80
2022/01/07 07:00:59;;;;;;;1.10;1.00;;;;;;;-1.91;98.27;96580.78;5061587;28;20202;-80
2022/01/07 07:03:26;;;;;;;1.50;1.10;;;;;;;-1.91;98.67;96589.56;5059183;28;20291;-80
2022/01/07 07:05:53;;;;;;;0.87;0.83;;;;;;;-1.86;98.45;96585.63;5063484;28;20269;-80
2022/01/07 07:08:21;;;;;;;1.70;1.20;;;;;;;-1.86;98.71;96585.63;5058706;28;20208;-80
2022/01/07 07:10:48;;;;;;;1.43;1.23;;;;;;;-1.84;98.44;96583.69;5059905;28;20270;-80
2022/01/07 07:13:16;;;;;;;1.03;0.90;;;;;;;-1.86;98.83;96589.13;5060833;28;20206;-80
2022/01/07 07:15:43;;;;;;;1.00;0.90;;;;;;;-1.91;99.45;96594.03;5059942;28;20209;-80
2022/01/07 07:18:10;;;;;;;2.33;1.80;;;;;;;-1.86;98.97;96597.06;5061130;28;20201;-80
2022/01/07 07:20:37;;;;;;;8.57;3.20;;;;;;;-1.93;99.11;96590.69;5062168;28;20241;-80
2022/01/07 07:23:05;;;;;;;5.93;3.77;;;;;;;-1.97;99.63;96597.28;5066566;28;20200;-80
2022/01/07 07:25:32;;;;;;;5.30;3.43;;;;;;;-1.94;99.95;96599.59;5064293;28;20219;-81
2022/01/07 07:27:59;;;;;;;5.20;2.40;;;;;;;-1.94;100.00;96596.97;5059612;28;20242;-80
2022/01/07 07:30:34;;;;;;;6.30;3.20;;;;;;;-1.93;100.00;96598.63;5065037;28;20322;-80
2022/01/07 07:33:27;;;;;;;6.67;3.50;;;;;;;-1.91;100.00;96596.66;5052350;28;20205;-80
2022/01/07 07:38:35;;;;;;;4.23;2.90;;;;;;;-1.94;99.89;96591.66;5060027;28;20205;-80
2022/01/07 07:41:02;;;;;;;3.83;2.50;;;;;;;-1.95;100.00;96587.34;5067485;28;20220;-79
2022/01/07 07:43:29;;;;;;;4.70;3.30;;;;;;;-1.95;100.00;96592.63;5066880;28;20221;-80
2022/01/07 07:45:58;;;;;;;3.13;2.20;;;;;;;-1.97;100.00;96590.16;5065300;28;20228;-80
2022/01/07 07:48:25;;;;;;;20.80;12.10;;;;;;;-1.98;100.00;96592.97;5062346;28;20217;-79
2022/01/07 07:50:52;;;;;;;18.47;12.07;;;;;;;-2.02;100.00;96594.22;5062566;28;20325;-80
2022/01/07 07:53:19;;;;;;;7.57;5.43;;;;;;;-2.04;100.00;96607.59;5062363;28;20202;-79
2022/01/07 07:55:51;;;;;;;5.53;4.00;;;;;;;-2.02;100.00;96595.03;5060183;28;20252;-80
2022/01/07 07:58:18;;;;;;;5.57;3.30;;;;;;;-2.01;100.00;96587.94;5060479;28;20259;-80
2022/01/07 08:00:46;;;;;;;4.00;2.90;;;;;;;-1.92;100.00;96590.53;5059266;28;20218;-80
2022/01/07 08:03:15;;;;;;;6.87;3.60;;;;;;;-1.89;100.00;96592.06;5065216;28;20208;-81
2022/01/07 08:05:43;;;;;;;5.30;3.27;;;;;;;-1.87;100.00;96589.28;5065200;28;20225;-80
2022/01/07 08:08:10;;;;;;;6.13;3.40;;;;;;;-1.89;100.00;96586.78;5059055;28;20218;-81
2022/01/07 08:10:44;;;;;;;6.13;3.37;;;;;;;-1.89;100.00;96586.78;5060881;28;20217;-81
2022/01/07 08:13:29;;;;;;;6.03;2.70;;;;;;;-1.81;100.00;96594.81;5058693;28;20201;-81
2022/01/07 08:16:00;;;;;;;5.67;3.30;;;;;;;-1.81;100.00;96589.53;5064686;28;20207;-80
2022/01/07 08:18:30;;;;;;;6.07;3.37;;;;;;;-1.84;100.00;96589.81;5056990;28;20202;-80
2022/01/07 08:20:57;;;;;;;7.63;4.20;;;;;;;-1.83;100.00;96590.63;5053651;28;20235;-81
2022/01/07 08:23:25;;;;;;;9.90;4.63;;;;;;;-1.78;100.00;96586.56;5062972;28;20210;-81
2022/01/07 08:25:52;;;;;;;4.73;3.07;;;;;;;-1.76;100.00;96586.41;5055147;28;20300;-81
2022/01/07 08:28:23;;;;;;;4.43;3.23;;;;;;;-1.74;100.00;96587.09;5062933;28;20322;-80
2022/01/07 08:31:11;;;;;;;5.60;3.50;;;;;;;-1.65;100.00;96581.75;5060817;28;20538;-86
2022/01/07 08:36:28;;;;;;;8.67;3.13;;;;;;;-1.53;100.00;96572.59;5064461;28;20238;-87
2022/01/07 08:38:56;;;;;;;7.13;2.90;;;;;;;-1.47;99.46;96580.94;5067314;28;20353;-88
2022/01/07 08:41:27;;;;;;;7.67;2.93;;;;;;;-1.42;99.40;96576.84;5065872;28;20266;-87
2022/01/07 08:43:55;;;;;;;9.00;2.70;;;;;;;-1.38;98.56;96575.56;5064776;28;20212;-88
2022/01/07 08:46:22;;;;;;;4.00;2.47;;;;;;;-1.37;98.40;96569.31;5060363;28;20212;-85
2022/01/07 08:48:51;;;;;;;6.17;2.83;;;;;;;-1.39;97.58;96573.91;5055584;28;20236;-88
2022/01/07 08:51:18;;;;;;;6.63;2.83;;;;;;;-1.40;98.22;96571.41;5053261;28;20235;-88
2022/01/07 08:53:46;;;;;;;3.27;2.10;;;;;;;-1.42;97.94;96576.00;5060789;28;20269;-87
2022/01/07 08:56:13;;;;;;;3.73;2.57;;;;;;;-1.40;98.87;96582.84;5054545;28;20192;-90
2022/01/07 08:58:40;;;;;;;4.40;2.43;;;;;;;-1.38;98.73;96574.75;5062149;28;20197;-88
2022/01/07 09:01:07;;;;;;;4.50;2.60;;;;;;;-1.33;98.99;96572.47;5057576;28;20237;-88
2022/01/07 09:03:34;;;;;;;3.23;2.20;;;;;;;-1.30;98.70;96577.47;5066736;28;20225;-88
2022/01/07 09:06:03;;;;;;;4.30;2.37;;;;;;;-1.23;98.54;96567.94;5057574;28;20241;-88
2022/01/07 09:08:31;;;;;;;6.13;2.70;;;;;;;-1.21;97.53;96561.50;5063464;28;20597;-88
2022/01/07 09:10:58;;;;;;;6.40;2.20;;;;;;;-1.14;97.58;96548.47;5055729;28;20320;-87
2022/01/07 09:13:25;;;;;;;14.17;2.20;;;;;;;-1.04;96.25;96549.22;5063563;28;20219;-86
2022/01/07 09:15:52;;;;;;;2.97;1.80;;;;;;;-0.88;95.44;96546.69;5057527;28;20206;-89
2022/01/07 09:18:21;;;;;;;5.23;1.37;;;;;;;-0.81;94.91;96550.38;5058797;28;20201;-91
2022/01/07 09:20:49;;;;;;;2.50;1.50;;;;;;;-0.77;92.98;96553.56;5062868;28;20209;-93
2022/01/07 09:23:17;;;;;;;1.70;1.40;;;;;;;-0.66;92.42;96555.94;5059079;28;20213;-88
2022/01/07 09:25:45;;;;;;;1.50;1.10;;;;;;;-0.51;89.64;96548.25;5060868;28;20204;-92
2022/01/07 09:28:12;;;;;;;1.00;0.90;;;;;;;-0.39;86.69;96554.94;5061498;28;20218;-92
2022/01/07 09:30:39;;;;;;;1.10;0.90;;;;;;;-0.30;86.64;96547.88;5057607;28;20279;-87
2022/01/07 09:33:07;;;;;;;1.60;1.40;;;;;;;-0.25;86.29;96542.91;5060200;28;20220;-87
2022/01/07 09:35:34;;;;;;;3.27;2.30;;;;;;;-0.25;85.74;96542.91;5052407;28;20209;-81
2022/01/07 09:38:04;;;;;;;3.83;2.00;;;;;;;-0.24;84.95;96533.94;5061619;28;20205;-82
2022/01/07 09:40:33;;;;;;;2.47;1.80;;;;;;;-0.19;85.38;96542.28;5057094;28;20189;-82
2022/01/07 09:43:03;;;;;;;5.13;2.07;;;;;;;-0.20;86.85;96545.94;5058935;28;20201;-91
2022/01/07 09:45:32;;;;;;;3.53;1.90;;;;;;;-0.20;87.32;96541.44;5060777;28;20218;-85
2022/01/07 09:48:01;;;;;;;4.50;2.13;;;;;;;-0.21;87.47;96539.78;5063877;28;20216;-90
2022/01/07 09:50:30;;;;;;;3.77;2.80;;;;;;;-0.24;88.71;96532.13;5064322;28;20197;-89
2022/01/07 09:52:57;;;;;;;4.27;2.73;;;;;;;-0.22;88.51;96521.38;5065531;28;20213;-88
2022/01/07 09:55:25;;;;;;;5.23;3.03;;;;;;;-0.15;90.06;96515.25;5067653;28;20201;-87
2022/01/07 09:57:53;;;;;;;3.97;2.07;;;;;;;-0.15;87.85;96509.94;5066033;28;20209;-90
2022/01/07 10:00:20;;;;;;;6.00;2.17;;;;;;;-0.12;88.55;96500.84;5081351;28;20221;-90
2022/01/07 10:03:02;;;;;;;6.80;2.70;;;;;;;-0.02;88.89;96502.38;5067498;28;20209;-89
2022/01/07 10:05:30;;;;;;;5.50;3.03;;;;;;;-0.02;90.25;96491.75;5065725;28;20217;-88
2022/01/07 10:07:58;;;;;;;4.63;2.77;;;;;;;0.05;89.23;96477.84;5062145;28;20210;-87
2022/01/07 10:10:27;;;;;;;4.17;2.50;;;;;;;0.25;88.75;96477.41;5062612;28;20205;-88
2022/01/07 10:13:00;;;;;;;10.37;2.97;;;;;;;0.34;86.08;96472.94;5063818;28;20248;-87
2022/01/07 10:15:29;;;;;;;5.63;2.80;;;;;;;0.43;85.85;96469.25;5057532;28;20209;-88
2022/01/07 10:17:59;;;;;;;4.90;2.40;;;;;;;0.57;85.59;96465.97;5060079;28;20218;-87
2022/01/07 10:20:28;;;;;;;2.60;1.83;;;;;;;0.63;84.11;96453.84;5062445;28;20216;-88
2022/01/07 10:22:58;;;;;;;3.30;2.00;;;;;;;0.69;82.67;96447.84;5059859;28;20220;-86
2022/01/07 10:25:28;;;;;;;2.20;1.77;;;;;;;0.63;83.75;96438.72;5063661;28;20201;-87
2022/01/07 10:28:02;;;;;;;7.87;2.20;;;;;;;0.79;83.71;96437.88;5056695;28;20236;-87
2022/01/07 10:30:35;;;;;;;8.57;4.87;;;;;;;0.99;82.29;96435.72;5065630;28;20241;-87
2022/01/07 10:33:16;;;;;;;4.13;2.70;;;;;;;1.22;80.57;96426.00;5064308;28;20221;-87
2022/01/07 10:35:44;;;;;;;5.00;2.73;;;;;;;1.37;78.51;96421.63;5052036;28;20240;-85
2022/01/07 10:38:16;;;;;;;2.40;1.97;;;;;;;1.52;77.29;96416.44;5066782;28;20274;-87
2022/01/07 10:40:44;;;;;;;3.30;1.50;;;;;;;1.70;76.00;96410.88;5063244;28;20311;-86
2022/01/07 10:43:16;;;;;;;1.93;1.30;;;;;;;1.82;74.43;96397.00;5064180;28;20217;-85
2022/01/07 10:45:45;;;;;;;1.97;1.50;;;;;;;1.97;73.98;96390.91;5057818;28;20206;-86
2022/01/07 10:48:13;;;;;;;2.30;1.47;;;;;;;2.14;73.51;96392.47;5058468;28;20307;-85
2022/01/07 10:50:42;;;;;;;2.47;1.53;;;;;;;2.26;72.64;96394.56;5058899;28;20210;-86
2022/01/07 10:53:22;;;;;;;1.30;1.10;;;;;;;2.53;70.79;96400.34;5066603;28;20224;-86
2022/01/07 10:56:05;;;;;;;2.00;1.20;;;;;;;2.79;69.60;96395.47;5074525;28;20263;-85
2022/01/07 10:59:01;;;;;;;4.00;1.10;;;;;;;2.86;67.84;96392.88;5063016;28;20210;-85
2022/01/07 11:01:40;;;;;;;2.43;1.10;;;;;;;2.81;68.89;96398.75;5053520;28;20205;-86
2022/01/07 11:04:10;;;;;;;1.80;1.00;;;;;;;2.80;67.86;96410.47;5065346;28;20204;-83
2022/01/07 11:06:39;;;;;;;3.70;1.13;;;;;;;2.64;66.78;96414.06;5061923;28;20243;-85
2022/01/07 11:09:10;;;;;;;3.07;1.10;;;;;;;2.58;66.72;96421.97;5064077;28;20198;-86
2022/01/07 11:11:48;;;;;;;1.50;1.00;;;;;;;2.61;67.11;96427.78;5065537;28;20262;-84
2022/01/07 11:14:21;;;;;;;1.60;1.10;;;;;;;2.55;66.53;96422.34;5062236;28;20219;-85
2022/01/07 11:16:48;;;;;;;1.80;1.10;;;;;;;2.55;67.29;96427.66;5063449;28;20201;-85
2022/01/07 11:19:20;;;;;;;1.57;1.10;;;;;;;2.62;67.71;96425.94;5061777;28;20212;-84
2022/01/07 11:21:50;;;;;;;2.23;1.30;;;;;;;2.61;67.49;96429.59;5061130;28;20212;-85
2022/01/07 11:24:39;;;;;;;5.00;1.80;;;;;;;2.45;68.59;96435.06;5066412;28;20224;-84
2022/01/07 11:27:09;;;;;;;1.73;1.43;;;;;;;2.34;70.14;96438.97;5062859;28;20213;-85
2022/01/07 11:29:46;;;;;;;2.83;1.60;;;;;;;2.30;72.53;96442.16;5060568;28;20291;-85
2022/01/07 11:32:44;;;;;;;1.80;1.23;;;;;;;2.25;70.37;96443.50;5057741;28;20312;-84
2022/01/07 11:35:45;;;;;;;1.90;1.47;;;;;;;2.27;71.10;96430.03;5001805;28;20211;-85
2022/01/07 11:38:32;;;;;;;2.23;1.57;;;;;;;2.23;69.86;96432.19;5057504;28;20207;-85
2022/01/07 11:40:59;;;;;;;3.30;1.90;;;;;;;2.19;70.63;96432.75;5059974;28;20209;-85
2022/01/07 11:43:32;;;;;;;3.37;1.73;;;;;;;2.19;71.31;96430.91;5058253;28;20217;-85